Time;durP1;ratioP1;P1;durP2;ratioP2;P2;SDS_P1;SDS_P2;PMS_P1;PMS_P2;Temp;Humidity;BMP_temperature;BMP_pressure;BME280_temperature;BME280_humidity;BME280_pressure;Samples;Min_cycle;Max_cycle;Signal;HPM_P1;HPM_P2
2023/01/24 00:01:21;;;;;;;;;;;24.30;99.90;;;;;;5014863;28;20027;-70
2023/01/24 00:03:47;;;;;;;;;;;24.50;99.90;;;;;;5014120;28;19963;-74
2023/01/24 00:06:15;;;;;;;;;;;24.50;99.90;;;;;;5013875;28;19916;-75
2023/01/24 00:08:42;;;;;;;;;;;24.70;99.90;;;;;;5012499;28;19944;-74
2023/01/24 00:11:10;;;;;;;;;;;24.80;99.90;;;;;;5013972;28;19964;-76
2023/01/24 00:13:37;;;;;;;;;;;24.70;99.90;;;;;;5013669;28;19910;-75
2023/01/24 00:16:05;;;;;;;;;;;24.80;99.90;;;;;;5013829;28;19910;-71
2023/01/24 00:18:32;;;;;;;;;;;24.80;99.90;;;;;;5013413;28;19976;-75
2023/01/24 00:21:09;;;;;;;;;;;24.80;99.90;;;;;;5013835;28;20423;-75
2023/01/24 00:23:36;;;;;;;;;;;24.90;99.90;;;;;;5021272;28;19912;-75
2023/01/24 00:26:03;;;;;;;;;;;25.00;99.90;;;;;;5033101;28;19909;-68
2023/01/24 00:28:30;;;;;;;;;;;25.00;99.90;;;;;;5032045;28;19921;-73
2023/01/24 00:30:57;;;;;;;;;;;25.20;99.90;;;;;;5021594;28;19913;-74
2023/01/24 00:33:24;;;;;;;;;;;25.10;99.90;;;;;;5012535;28;19928;-75
2023/01/24 00:35:51;;;;;;;;;;;25.20;99.90;;;;;;5013664;28;19909;-73
2023/01/24 00:38:18;;;;;;;;;;;25.20;99.90;;;;;;5013162;28;20008;-74
2023/01/24 00:40:45;;;;;;;;;;;25.20;99.90;;;;;;5013483;28;20360;-75
2023/01/24 00:43:11;;;;;;;;;;;25.20;99.90;;;;;;5013373;28;19910;-66
2023/01/24 00:45:39;;;;;;;;;;;25.20;99.90;;;;;;5012735;28;19913;-75
2023/01/24 00:48:06;;;;;;;;;;;25.10;99.90;;;;;;5013040;28;19917;-74
2023/01/24 00:50:33;;;;;;;;;;;25.20;99.90;;;;;;5013139;28;19914;-72
2023/01/24 00:53:00;;;;;;;;;;;25.20;99.90;;;;;;5012808;28;19909;-73
2023/01/24 00:55:27;;;;;;;;;;;25.40;99.90;;;;;;5012668;28;19913;-73
2023/01/24 00:57:54;;;;;;;;;;;25.60;99.90;;;;;;5012793;28;19909;-75
2023/01/24 01:00:21;;;;;;;;;;;25.70;99.90;;;;;;5012340;28;19926;-73
2023/01/24 01:02:51;;;;;;;;;;;25.70;99.90;;;;;;5012402;28;19923;-74
2023/01/24 01:05:17;;;;;;;;;;;25.70;99.90;;;;;;5012882;28;19999;-76
2023/01/24 01:07:44;;;;;;;;;;;25.60;99.90;;;;;;5012864;28;20386;-75
2023/01/24 01:10:11;;;;;;;;;;;25.70;99.90;;;;;;5013240;28;19914;-68
2023/01/24 01:12:38;;;;;;;;;;;26.00;99.90;;;;;;5013006;28;19916;-73
2023/01/24 01:15:04;;;;;;;;;;;26.10;99.90;;;;;;5012425;28;19913;-72
2023/01/24 01:17:31;;;;;;;;;;;26.40;99.90;;;;;;5012824;28;20253;-73
2023/01/24 01:19:58;;;;;;;;;;;27.00;99.90;;;;;;5013026;28;20367;-75
2023/01/24 01:22:25;;;;;;;;;;;27.70;99.90;;;;;;5012620;28;19916;-73
2023/01/24 01:24:51;;;;;;;;;;;28.00;99.90;;;;;;5031743;28;20300;-76
2023/01/24 01:27:18;;;;;;;;;;;28.60;99.90;;;;;;5031864;28;19925;-74
2023/01/24 01:29:45;;;;;;;;;;;29.00;99.90;;;;;;5022039;28;19921;-75
2023/01/24 01:32:11;;;;;;;;;;;29.10;99.90;;;;;;5012813;28;19913;-72
2023/01/24 01:34:38;;;;;;;;;;;29.30;99.90;;;;;;5012862;28;19916;-74
2023/01/24 01:37:05;;;;;;;;;;;29.10;99.90;;;;;;5012684;28;19917;-76
2023/01/24 01:39:31;;;;;;;;;;;29.10;99.90;;;;;;5013342;28;20236;-75
2023/01/24 01:41:58;;;;;;;;;;;29.40;99.90;;;;;;5016098;28;20475;-75
2023/01/24 01:44:38;;;;;;;;;;;29.50;99.90;;;;;;5016071;28;19984;-75
2023/01/24 01:47:18;;;;;;;;;;;29.50;99.90;;;;;;5016077;28;19914;-73
2023/01/24 01:50:04;;;;;;;;;;;28.80;99.90;;;;;;5016494;28;19914;-74
2023/01/24 01:52:36;;;;;;;;;;;28.40;99.90;;;;;;5008807;28;19920;-76
2023/01/24 01:55:06;;;;;;;;;;;28.50;99.90;;;;;;5015656;28;19965;-75
2023/01/24 01:57:34;;;;;;;;;;;28.80;99.90;;;;;;5015960;28;19955;-75
2023/01/24 02:00:11;;;;;;;;;;;28.90;99.90;;;;;;5016121;28;20043;-72
2023/01/24 02:02:40;;;;;;;;;;;28.70;99.90;;;;;;5016250;28;19916;-75
2023/01/24 02:05:08;;;;;;;;;;;28.30;99.90;;;;;;5016109;28;20391;-76
2023/01/24 02:07:59;;;;;;;;;;;27.90;99.90;;;;;;5015435;28;20395;-75
2023/01/24 02:11:37;;;;;;;;;;;27.60;99.90;;;;;;5015665;28;20004;-75
2023/01/24 02:13:13;;;;;;;;;;;27.30;99.90;;;;;;5015579;28;20280;-74
2023/01/24 02:18:26;;;;;;;;;;;27.10;99.90;;;;;;5015985;28;19916;-71
2023/01/24 02:20:53;;;;;;;;;;;27.10;99.90;;;;;;5015590;28;19963;-74
2023/01/24 02:23:24;;;;;;;;;;;27.00;99.90;;;;;;5021636;28;20400;-74
2023/01/24 02:26:09;;;;;;;;;;;26.90;99.90;;;;;;5014513;28;20348;-73
2023/01/24 02:28:36;;;;;;;;;;;26.90;99.90;;;;;;5015070;28;19917;-73
2023/01/24 02:31:04;;;;;;;;;;;26.90;99.90;;;;;;5015341;28;19941;-74
2023/01/24 02:33:31;;;;;;;;;;;26.80;99.90;;;;;;5014992;28;19996;-75
2023/01/24 02:36:07;;;;;;;;;;;26.60;99.90;;;;;;4997548;28;20333;-75
2023/01/24 02:38:33;;;;;;;;;;;26.50;99.90;;;;;;5014034;28;19913;-75
2023/01/24 02:41:06;;;;;;;;;;;26.40;99.90;;;;;;5015105;28;19921;-73
2023/01/24 02:43:35;;;;;;;;;;;26.30;99.90;;;;;;5014230;28;19963;-74
2023/01/24 02:46:01;;;;;;;;;;;26.50;99.90;;;;;;5015290;28;20000;-75
2023/01/24 02:48:28;;;;;;;;;;;26.50;99.90;;;;;;5014778;28;20296;-74
2023/01/24 02:53:40;;;;;;;;;;;26.50;99.90;;;;;;5014286;28;19921;-74
2023/01/24 02:58:53;;;;;;;;;;;26.30;99.90;;;;;;5015224;28;20347;-73
2023/01/24 03:01:20;;;;;;;;;;;26.50;99.90;;;;;;5014493;28;19913;-75
2023/01/24 03:03:47;;;;;;;;;;;26.50;99.90;;;;;;5014916;28;19921;-75
2023/01/24 03:06:15;;;;;;;;;;;26.40;99.90;;;;;;5014680;28;19916;-74
2023/01/24 03:08:42;;;;;;;;;;;26.50;99.90;;;;;;5013579;28;19925;-73
2023/01/24 03:11:09;;;;;;;;;;;26.50;99.90;;;;;;5013727;28;19914;-75
2023/01/24 03:35:37;;;;;;;;;;;26.30;99.90;;;;;;5014674;28;20367;-74
2023/01/24 03:40:52;;;;;;;;;;;26.30;99.90;;;;;;5014378;28;19916;-74
2023/01/24 03:43:18;;;;;;;;;;;26.30;99.90;;;;;;5013204;28;20056;-74
2023/01/24 03:45:45;;;;;;;;;;;26.20;99.90;;;;;;5014176;28;20312;-74
2023/01/24 03:48:14;;;;;;;;;;;26.20;99.90;;;;;;5013789;28;19921;-73
2023/01/24 03:53:28;;;;;;;;;;;26.20;99.90;;;;;;5014195;28;19916;-76
2023/01/24 03:55:56;;;;;;;;;;;26.20;99.90;;;;;;5013878;28;20384;-74
2023/01/24 03:58:24;;;;;;;;;;;26.10;99.90;;;;;;5012944;28;19913;-74
2023/01/24 04:00:52;;;;;;;;;;;26.00;99.90;;;;;;5013524;28;20376;-75
2023/01/24 04:03:19;;;;;;;;;;;26.10;99.90;;;;;;5013317;28;20012;-74
2023/01/24 04:05:48;;;;;;;;;;;26.10;99.90;;;;;;5013491;28;19910;-74
2023/01/24 04:08:15;;;;;;;;;;;26.20;99.90;;;;;;5013264;28;19925;-74
2023/01/24 04:10:42;;;;;;;;;;;26.30;99.90;;;;;;5013553;28;19913;-75
2023/01/24 04:13:09;;;;;;;;;;;26.20;99.90;;;;;;5012466;28;19988;-74
2023/01/24 04:15:36;;;;;;;;;;;26.20;99.90;;;;;;5013162;28;19956;-75
2023/01/24 04:18:04;;;;;;;;;;;26.20;99.90;;;;;;5013336;28;20323;-75
2023/01/24 04:20:32;;;;;;;;;;;26.30;99.90;;;;;;5013676;28;19956;-75
2023/01/24 04:23:03;;;;;;;;;;;26.30;99.90;;;;;;5016864;28;19913;-75
2023/01/24 04:25:29;;;;;;;;;;;26.30;99.90;;;;;;5032875;28;20300;-75
2023/01/24 04:27:56;;;;;;;;;;;26.20;99.90;;;;;;5017025;28;20365;-75
2023/01/24 04:30:23;;;;;;;;;;;26.10;99.90;;;;;;5013436;28;19913;-73
2023/01/24 04:32:50;;;;;;;;;;;26.10;99.90;;;;;;5013176;28;19910;-75
2023/01/24 04:35:18;;;;;;;;;;;26.00;99.90;;;;;;5012824;28;19948;-74
2023/01/24 04:37:44;;;;;;;;;;;26.10;99.90;;;;;;5012901;28;20397;-74
2023/01/24 04:40:11;;;;;;;;;;;26.20;99.90;;;;;;5013107;28;19914;-75
2023/01/24 04:42:38;;;;;;;;;;;26.20;99.90;;;;;;5012297;28;19921;-75
2023/01/24 04:45:05;;;;;;;;;;;26.30;99.90;;;;;;5013285;28;19909;-75
2023/01/24 04:47:32;;;;;;;;;;;26.20;99.90;;;;;;5012545;28;20386;-75
2023/01/24 04:49:58;;;;;;;;;;;26.00;99.90;;;;;;5013120;28;19932;-75
2023/01/24 04:52:25;;;;;;;;;;;26.00;99.90;;;;;;5013005;28;19917;-75
2023/01/24 04:54:52;;;;;;;;;;;26.00;99.90;;;;;;5013090;28;20383;-75
2023/01/24 04:57:18;;;;;;;;;;;26.10;99.90;;;;;;5011652;28;19913;-75
2023/01/24 04:59:45;;;;;;;;;;;26.20;99.90;;;;;;5012309;28;19922;-75
2023/01/24 05:02:12;;;;;;;;;;;26.10;99.90;;;;;;5012897;28;19909;-75
2023/01/24 05:04:39;;;;;;;;;;;26.10;99.90;;;;;;5012790;28;20364;-74
2023/01/24 05:07:05;;;;;;;;;;;26.10;99.90;;;;;;5012202;28;20327;-75
2023/01/24 05:09:32;;;;;;;;;;;26.00;99.90;;;;;;5012681;28;19922;-75
2023/01/24 05:11:59;;;;;;;;;;;25.90;99.90;;;;;;5011678;28;19967;-74
2023/01/24 05:14:25;;;;;;;;;;;25.90;99.90;;;;;;5012326;28;19936;-74
2023/01/24 05:16:52;;;;;;;;;;;26.00;99.90;;;;;;5016123;28;19975;-75
2023/01/24 05:19:18;;;;;;;;;;;26.00;99.90;;;;;;5016299;28;20388;-75
2023/01/24 05:21:45;;;;;;;;;;;26.10;99.90;;;;;;5016563;28;20375;-75
2023/01/24 05:24:12;;;;;;;;;;;25.90;99.90;;;;;;5029943;28;20003;-75
2023/01/24 05:26:38;;;;;;;;;;;26.00;99.90;;;;;;5021512;28;20427;-75
2023/01/24 05:29:05;;;;;;;;;;;26.00;99.90;;;;;;5016269;28;19913;-74
2023/01/24 05:31:32;;;;;;;;;;;25.90;99.90;;;;;;5016006;28;20352;-75
2023/01/24 05:33:58;;;;;;;;;;;25.90;99.90;;;;;;5016355;28;20032;-74
2023/01/24 05:36:25;;;;;;;;;;;25.90;99.90;;;;;;5015983;28;19963;-75
2023/01/24 05:38:52;;;;;;;;;;;25.90;99.90;;;;;;5016511;28;19909;-75
2023/01/24 05:41:19;;;;;;;;;;;25.90;99.90;;;;;;5015310;28;19914;-75
2023/01/24 05:43:46;;;;;;;;;;;25.90;99.90;;;;;;5016426;28;20271;-75
2023/01/24 05:46:15;;;;;;;;;;;25.80;99.90;;;;;;5016253;28;19910;-66
2023/01/24 05:48:42;;;;;;;;;;;25.80;99.90;;;;;;5016072;28;20315;-64
2023/01/24 05:51:10;;;;;;;;;;;25.90;99.90;;;;;;5014695;28;19921;-66
2023/01/24 05:53:38;;;;;;;;;;;26.00;99.90;;;;;;5013094;28;20371;-65
2023/01/24 05:56:06;;;;;;;;;;;26.00;99.90;;;;;;5014023;28;19916;-67
2023/01/24 05:58:34;;;;;;;;;;;25.90;99.90;;;;;;5013805;28;19913;-69
2023/01/24 06:01:00;;;;;;;;;;;25.90;99.90;;;;;;5013708;28;19932;-67
2023/01/24 06:03:27;;;;;;;;;;;25.80;99.90;;;;;;5013452;28;19910;-65
2023/01/24 06:05:55;;;;;;;;;;;25.70;99.90;;;;;;5012681;28;19909;-65
2023/01/24 06:08:22;;;;;;;;;;;25.70;99.90;;;;;;5012619;28;20028;-69
2023/01/24 06:10:49;;;;;;;;;;;25.60;99.90;;;;;;5013469;28;19940;-65
2023/01/24 06:13:16;;;;;;;;;;;25.60;99.90;;;;;;5013109;28;19913;-68
2023/01/24 06:15:42;;;;;;;;;;;25.60;99.90;;;;;;5013711;28;20639;-68
2023/01/24 06:18:13;;;;;;;;;;;25.50;99.90;;;;;;5012839;28;19917;-64
2023/01/24 06:20:39;;;;;;;;;;;25.50;99.90;;;;;;5013362;28;19988;-67
2023/01/24 06:23:07;;;;;;;;;;;25.50;99.90;;;;;;5016799;28;19955;-66
2023/01/24 06:25:34;;;;;;;;;;;25.40;99.90;;;;;;5022530;28;19921;-65
2023/01/24 06:28:01;;;;;;;;;;;25.40;99.90;;;;;;5012711;28;20259;-67
2023/01/24 06:30:27;;;;;;;;;;;25.50;99.90;;;;;;5012667;28;19909;-65
2023/01/24 06:33:12;;;;;;;;;;;25.50;99.90;;;;;;5013312;28;20008;-65
2023/01/24 06:36:03;;;;;;;;;;;25.50;99.90;;;;;;5028135;28;20288;-64
2023/01/24 06:38:30;;;;;;;;;;;25.40;99.90;;;;;;5012529;28;19914;-67
2023/01/24 06:40:57;;;;;;;;;;;25.30;99.90;;;;;;5012924;28;19945;-68
2023/01/24 06:43:24;;;;;;;;;;;25.40;99.90;;;;;;5012584;28;20391;-73
2023/01/24 06:45:51;;;;;;;;;;;25.30;99.90;;;;;;5013214;28;20431;-65
2023/01/24 06:48:18;;;;;;;;;;;25.20;99.90;;;;;;5012479;28;19971;-64
2023/01/24 06:50:48;;;;;;;;;;;25.20;99.90;;;;;;5013087;28;19921;-68
2023/01/24 06:53:14;;;;;;;;;;;25.10;99.90;;;;;;5012021;28;20028;-65
2023/01/24 06:55:45;;;;;;;;;;;25.10;99.90;;;;;;5012779;28;19913;-68
2023/01/24 06:58:12;;;;;;;;;;;25.10;99.90;;;;;;5011926;28;19909;-68
2023/01/24 07:00:38;;;;;;;;;;;25.20;99.90;;;;;;5012533;28;19921;-68
2023/01/24 07:03:06;;;;;;;;;;;25.20;99.90;;;;;;5012466;28;19959;-64
2023/01/24 07:05:33;;;;;;;;;;;25.20;99.90;;;;;;5012031;28;19971;-67
2023/01/24 07:08:00;;;;;;;;;;;25.10;99.90;;;;;;5010875;28;20329;-70
2023/01/24 07:10:28;;;;;;;;;;;25.00;99.90;;;;;;5011751;28;19916;-69
2023/01/24 07:12:55;;;;;;;;;;;24.80;99.90;;;;;;5012150;28;20008;-66
2023/01/24 07:15:22;;;;;;;;;;;24.80;99.90;;;;;;5011769;28;19909;-65
2023/01/24 07:17:49;;;;;;;;;;;24.80;99.90;;;;;;5011634;28;19914;-65
2023/01/24 07:20:16;;;;;;;;;;;24.70;99.90;;;;;;5011821;28;19909;-64
2023/01/24 07:22:43;;;;;;;;;;;24.80;99.90;;;;;;5011445;28;19918;-65
2023/01/24 07:25:14;;;;;;;;;;;24.70;99.90;;;;;;5025187;28;19919;-65
2023/01/24 07:27:42;;;;;;;;;;;24.70;99.90;;;;;;5011543;28;19936;-68
2023/01/24 07:30:10;;;;;;;;;;;24.80;99.90;;;;;;5011818;28;19952;-65
2023/01/24 07:32:37;;;;;;;;;;;24.70;99.90;;;;;;5010167;28;19991;-76
2023/01/24 07:35:04;;;;;;;;;;;24.70;99.90;;;;;;5004611;28;19964;-65
2023/01/24 07:37:31;;;;;;;;;;;24.70;99.90;;;;;;5004655;28;19999;-67
2023/01/24 07:39:57;;;;;;;;;;;24.70;99.90;;;;;;5005561;28;19917;-73
2023/01/24 07:42:24;;;;;;;;;;;24.60;99.90;;;;;;5005332;28;19929;-68
2023/01/24 07:44:51;;;;;;;;;;;24.60;99.90;;;;;;5005106;28;20368;-66
2023/01/24 07:47:17;;;;;;;;;;;24.60;99.90;;;;;;5004968;28;20458;-70
2023/01/24 07:49:44;;;;;;;;;;;24.50;99.90;;;;;;5004145;28;19917;-69
2023/01/24 07:52:10;;;;;;;;;;;24.40;99.90;;;;;;5005484;28;19913;-66
2023/01/24 07:54:37;;;;;;;;;;;24.40;99.90;;;;;;5005417;28;20542;-74
2023/01/24 07:57:05;;;;;;;;;;;24.30;99.90;;;;;;5004978;28;20376;-72
2023/01/24 07:59:32;;;;;;;;;;;24.40;99.90;;;;;;5004988;28;19925;-68
2023/01/24 08:01:58;;;;;;;;;;;24.30;99.90;;;;;;5004691;28;19940;-66
2023/01/24 08:04:25;;;;;;;;;;;24.30;99.90;;;;;;5004221;28;20032;-69
2023/01/24 08:09:36;;;;;;;;;;;24.30;99.90;;;;;;5004909;28;19952;-67
2023/01/24 08:12:04;;;;;;;;;;;24.20;99.90;;;;;;5004643;28;19913;-70
2023/01/24 08:14:30;;;;;;;;;;;24.20;99.90;;;;;;5005053;28;19914;-70
2023/01/24 08:16:57;;;;;;;;;;;24.20;99.90;;;;;;5004240;28;19913;-70
2023/01/24 08:19:23;;;;;;;;;;;24.20;99.90;;;;;;5003958;28;20598;-69
2023/01/24 08:21:50;;;;;;;;;;;24.10;99.90;;;;;;5004917;28;19993;-67
2023/01/24 08:24:17;;;;;;;;;;;24.10;99.90;;;;;;5018848;28;19913;-68
2023/01/24 08:26:46;;;;;;;;;;;24.00;99.90;;;;;;5012683;28;20609;-65
2023/01/24 08:29:13;;;;;;;;;;;24.00;99.90;;;;;;5004349;28;19948;-69
2023/01/24 08:31:39;;;;;;;;;;;24.00;99.90;;;;;;5005006;28;20382;-71
2023/01/24 08:34:06;;;;;;;;;;;24.00;99.90;;;;;;5004970;28;19914;-65
2023/01/24 08:36:33;;;;;;;;;;;23.90;99.90;;;;;;5004567;28;19921;-68
2023/01/24 08:38:59;;;;;;;;;;;23.90;99.90;;;;;;5009783;28;19910;-65
2023/01/24 08:41:26;;;;;;;;;;;23.90;99.90;;;;;;5012283;28;19913;-75
2023/01/24 08:43:53;;;;;;;;;;;23.90;99.90;;;;;;5013273;28;19963;-66
2023/01/24 08:46:20;;;;;;;;;;;23.80;99.90;;;;;;5012847;28;19932;-65
2023/01/24 08:48:46;;;;;;;;;;;23.90;99.90;;;;;;5013772;28;19924;-64
2023/01/24 08:51:13;;;;;;;;;;;23.90;99.90;;;;;;5017134;28;19913;-66
2023/01/24 08:53:39;;;;;;;;;;;23.90;99.90;;;;;;5017151;28;19913;-66
2023/01/24 08:56:09;;;;;;;;;;;23.90;99.90;;;;;;5016265;28;19913;-65
2023/01/24 08:58:35;;;;;;;;;;;23.80;99.90;;;;;;5017205;28;19917;-65
2023/01/24 09:01:08;;;;;;;;;;;23.80;99.90;;;;;;5016801;28;19961;-65
2023/01/24 09:03:37;;;;;;;;;;;23.60;99.90;;;;;;5016565;28;19932;-69
2023/01/24 09:06:04;;;;;;;;;;;23.40;99.90;;;;;;5016166;28;19910;-65
2023/01/24 09:08:31;;;;;;;;;;;23.40;99.90;;;;;;5016619;28;20382;-65
2023/01/24 09:10:58;;;;;;;;;;;23.20;99.90;;;;;;5015801;28;20327;-68
2023/01/24 09:13:25;;;;;;;;;;;23.10;99.90;;;;;;5016388;28;19917;-68
2023/01/24 09:15:52;;;;;;;;;;;23.20;99.90;;;;;;5016464;28;19917;-68
2023/01/24 09:18:18;;;;;;;;;;;23.00;99.90;;;;;;5016486;28;19909;-64
2023/01/24 09:20:45;;;;;;;;;;;23.00;99.90;;;;;;5014279;28;19921;-73
2023/01/24 09:23:14;;;;;;;;;;;22.90;99.90;;;;;;5019649;28;19913;-71
2023/01/24 09:25:41;;;;;;;;;;;22.90;99.90;;;;;;5022622;28;20021;-64
2023/01/24 09:28:08;;;;;;;;;;;22.90;99.90;;;;;;5013384;28;19921;-67
2023/01/24 09:30:35;;;;;;;;;;;22.90;99.90;;;;;;5013022;28;20537;-65
2023/01/24 09:33:05;;;;;;;;;;;23.00;99.90;;;;;;5014114;28;20432;-65
2023/01/24 09:35:32;;;;;;;;;;;22.90;99.90;;;;;;5014188;28;19936;-65
2023/01/24 09:37:58;;;;;;;;;;;23.00;99.90;;;;;;5013544;28;20374;-65
2023/01/24 09:40:30;;;;;;;;;;;23.00;99.90;;;;;;5013737;28;20388;-65
2023/01/24 09:43:26;;;;;;;;;;;23.10;99.90;;;;;;5014610;28;19921;-65
2023/01/24 09:46:00;;;;;;;;;;;23.10;99.90;;;;;;4960459;28;20328;-65
2023/01/24 09:48:28;;;;;;;;;;;23.20;99.90;;;;;;5014254;28;20020;-65
2023/01/24 09:50:59;;;;;;;;;;;23.20;99.90;;;;;;5014225;28;19956;-64
2023/01/24 09:53:30;;;;;;;;;;;23.20;99.90;;;;;;5012895;28;19914;-68
2023/01/24 09:55:59;;;;;;;;;;;23.20;99.90;;;;;;5014052;28;19913;-64
2023/01/24 09:58:43;;;;;;;;;;;23.10;99.90;;;;;;5014429;28;19964;-67
2023/01/24 10:01:12;;;;;;;;;;;23.20;99.90;;;;;;5013778;28;19927;-66
2023/01/24 10:03:39;;;;;;;;;;;23.10;99.90;;;;;;5014342;28;19952;-65
2023/01/24 10:06:14;;;;;;;;;;;23.00;99.90;;;;;;5013668;28;20399;-65
2023/01/24 10:08:47;;;;;;;;;;;23.10;99.90;;;;;;5008437;28;19965;-70
2023/01/24 10:11:14;;;;;;;;;;;23.20;99.90;;;;;;5007481;28;19914;-72
2023/01/24 10:13:59;;;;;;;;;;;23.10;99.90;;;;;;5007195;28;19936;-65
2023/01/24 10:16:40;;;;;;;;;;;23.30;99.90;;;;;;5007273;28;19943;-71
2023/01/24 10:19:25;;;;;;;;;;;23.20;99.90;;;;;;5007192;28;19920;-64
2023/01/24 10:21:58;;;;;;;;;;;23.10;99.90;;;;;;5006420;28;19966;-69
2023/01/24 10:24:28;;;;;;;;;;;22.90;99.90;;;;;;5018110;28;19918;-66
2023/01/24 10:26:55;;;;;;;;;;;22.90;99.90;;;;;;5006366;28;19929;-73
2023/01/24 10:29:26;;;;;;;;;;;22.80;99.90;;;;;;5006782;28;20657;-75
2023/01/24 10:32:11;;;;;;;;;;;23.10;99.90;;;;;;5006938;28;20305;-68
2023/01/24 10:34:45;;;;;;;;;;;22.80;99.90;;;;;;5006949;28;19997;-75
2023/01/24 10:37:25;;;;;;;;;;;23.00;99.90;;;;;;5006109;28;20012;-74
2023/01/24 10:39:52;;;;;;;;;;;22.90;99.90;;;;;;5006870;28;19928;-71
2023/01/24 10:42:27;;;;;;;;;;;22.80;99.90;;;;;;5007137;28;19913;-70
2023/01/24 10:44:57;;;;;;;;;;;22.80;99.90;;;;;;5006859;28;19936;-69
2023/01/24 10:47:38;;;;;;;;;;;22.80;99.90;;;;;;5006451;28;20035;-72
2023/01/24 10:50:07;;;;;;;;;;;22.80;99.90;;;;;;5006618;28;19917;-67
2023/01/24 10:52:34;;;;;;;;;;;22.80;99.90;;;;;;5005642;28;20452;-74
2023/01/24 10:55:01;;;;;;;;;;;22.80;99.90;;;;;;5006874;28;20602;-68
2023/01/24 10:57:34;;;;;;;;;;;22.70;99.90;;;;;;5006335;28;19917;-71
2023/01/24 11:00:05;;;;;;;;;;;22.60;99.90;;;;;;5006435;28;19932;-70
2023/01/24 11:02:36;;;;;;;;;;;22.50;99.90;;;;;;5006618;28;20444;-69
2023/01/24 11:05:04;;;;;;;;;;;22.30;99.90;;;;;;5006271;28;19913;-75
2023/01/24 11:07:40;;;;;;;;;;;21.90;99.90;;;;;;5004953;28;19932;-76
2023/01/24 11:10:26;;;;;;;;;;;21.80;99.90;;;;;;5006745;28;19925;-71
2023/01/24 11:12:53;;;;;;;;;;;21.80;99.90;;;;;;5005694;28;20673;-65
2023/01/24 11:15:30;;;;;;;;;;;21.60;99.90;;;;;;5006270;28;19921;-69
2023/01/24 11:17:58;;;;;;;;;;;21.70;99.90;;;;;;5005690;28;19913;-69
2023/01/24 11:20:35;;;;;;;;;;;21.80;99.90;;;;;;5005485;28;19918;-72
2023/01/24 11:23:06;;;;;;;;;;;21.70;99.90;;;;;;4992114;28;19924;-68
2023/01/24 11:25:33;;;;;;;;;;;21.80;99.90;;;;;;5025387;28;19952;-71
2023/01/24 11:28:00;;;;;;;;;;;21.70;99.90;;;;;;5025798;28;20427;-69
2023/01/24 11:30:33;;;;;;;;;;;21.70;99.90;;;;;;5025758;28;19952;-65
2023/01/24 11:33:06;;;;;;;;;;;21.70;99.90;;;;;;5025803;28;20362;-75
2023/01/24 11:35:37;;;;;;;;;;;21.60;99.90;;;;;;5016950;28;19917;-69
2023/01/24 11:38:16;;;;;;;;;;;21.60;99.90;;;;;;5005138;28;19918;-70
2023/01/24 11:41:08;;;;;;;;;;;21.60;99.90;;;;;;5005167;28;20005;-66
2023/01/24 11:44:04;;;;;;;;;;;21.60;99.90;;;;;;5002416;28;19913;-71
2023/01/24 11:46:34;;;;;;;;;;;21.50;99.90;;;;;;5005782;28;19914;-72
2023/01/24 11:49:09;;;;;;;;;;;21.40;99.90;;;;;;5005859;28;19928;-70
2023/01/24 11:51:48;;;;;;;;;;;21.20;99.90;;;;;;5004804;28;19941;-76
2023/01/24 11:54:43;;;;;;;;;;;21.10;99.90;;;;;;5006420;28;20020;-71
2023/01/24 11:57:30;;;;;;;;;;;21.00;99.90;;;;;;5001083;28;19963;-69
2023/01/24 12:00:01;;;;;;;;;;;20.90;99.90;;;;;;5014121;28;19921;-66
2023/01/24 12:02:45;;;;;;;;;;;20.90;99.90;;;;;;5014397;28;19941;-66
2023/01/24 12:05:12;;;;;;;;;;;20.80;99.90;;;;;;5012838;28;19918;-70
2023/01/24 12:07:42;;;;;;;;;;;20.70;99.90;;;;;;5012312;28;20036;-70
2023/01/24 12:10:08;;;;;;;;;;;20.60;99.90;;;;;;5014056;28;20257;-74
2023/01/24 12:12:46;;;;;;;;;;;20.40;99.90;;;;;;5014100;28;19910;-71
2023/01/24 12:15:24;;;;;;;;;;;20.40;99.90;;;;;;5012864;28;19959;-74
2023/01/24 12:17:58;;;;;;;;;;;20.30;99.90;;;;;;5013454;28;19955;-74
2023/01/24 12:20:51;;;;;;;;;;;20.10;99.90;;;;;;5013911;28;20331;-68
2023/01/24 12:23:27;;;;;;;;;;;19.80;99.90;;;;;;5019623;28;19909;-74
2023/01/24 12:25:54;;;;;;;;;;;19.70;99.90;;;;;;5033068;28;20295;-74
2023/01/24 12:28:33;;;;;;;;;;;19.60;99.90;;;;;;5033255;28;19917;-72
2023/01/24 12:31:01;;;;;;;;;;;19.60;99.90;;;;;;5017671;28;20249;-72
2023/01/24 12:33:28;;;;;;;;;;;19.40;99.90;;;;;;5013411;28;19910;-72
2023/01/24 12:35:58;;;;;;;;;;;19.50;99.90;;;;;;5013421;28;19910;-74
2023/01/24 12:38:31;;;;;;;;;;;19.60;99.90;;;;;;5013658;28;20357;-73
2023/01/24 12:41:00;;;;;;;;;;;19.80;99.90;;;;;;5013714;28;19910;-74
2023/01/24 12:43:34;;;;;;;;;;;19.80;99.90;;;;;;5013411;28;19916;-73
2023/01/24 12:46:01;;;;;;;;;;;19.90;99.90;;;;;;5012236;28;20004;-74
2023/01/24 12:48:34;;;;;;;;;;;19.90;99.90;;;;;;5013468;28;20015;-75
2023/01/24 12:51:21;;;;;;;;;;;19.90;99.90;;;;;;5013563;28;19920;-70
2023/01/24 12:53:53;;;;;;;;;;;19.60;99.90;;;;;;5013478;28;19937;-73
2023/01/24 12:56:22;;;;;;;;;;;19.50;99.90;;;;;;5013159;28;20336;-69
2023/01/24 12:58:50;;;;;;;;;;;19.50;99.90;;;;;;5012644;28;19913;-73
2023/01/24 13:01:16;;;;;;;;;;;19.40;99.90;;;;;;5013274;28;19918;-74
2023/01/24 13:03:50;;;;;;;;;;;19.50;99.90;;;;;;5013755;28;19916;-73
2023/01/24 13:06:17;;;;;;;;;;;19.70;99.90;;;;;;5013151;28;19909;-74
2023/01/24 13:08:52;;;;;;;;;;;19.70;99.90;;;;;;5013341;28;19925;-71
2023/01/24 13:11:23;;;;;;;;;;;19.70;99.90;;;;;;5013249;28;20280;-70
2023/01/24 13:14:08;;;;;;;;;;;19.70;99.90;;;;;;5012784;28;19913;-72
2023/01/24 13:16:53;;;;;;;;;;;19.80;99.90;;;;;;5012998;28;19941;-73
2023/01/24 13:19:27;;;;;;;;;;;19.80;99.90;;;;;;5012799;28;19916;-74
2023/01/24 13:21:58;;;;;;;;;;;19.80;99.90;;;;;;5013310;28;19916;-74
2023/01/24 13:24:37;;;;;;;;;;;19.80;99.90;;;;;;5028208;28;19909;-75
2023/01/24 13:27:18;;;;;;;;;;;19.80;99.90;;;;;;5032527;28;19976;-73
2023/01/24 13:29:59;;;;;;;;;;;19.80;99.90;;;;;;5019084;28;19918;-75
2023/01/24 13:32:27;;;;;;;;;;;19.80;99.90;;;;;;5013080;28;19963;-73
2023/01/24 13:34:55;;;;;;;;;;;19.80;99.90;;;;;;5012420;28;19913;-74
2023/01/24 13:37:32;;;;;;;;;;;19.90;99.90;;;;;;5016317;28;19916;-74
2023/01/24 13:40:01;;;;;;;;;;;19.80;99.90;;;;;;5016830;28;20000;-72
2023/01/24 13:42:35;;;;;;;;;;;19.90;99.90;;;;;;5016657;28;19914;-74
2023/01/24 13:45:20;;;;;;;;;;;19.90;99.90;;;;;;5015197;28;19914;-73
2023/01/24 13:47:47;;;;;;;;;;;19.90;99.90;;;;;;5015571;28;19925;-74
2023/01/24 13:50:14;;;;;;;;;;;19.90;99.90;;;;;;5015789;28;19952;-74
2023/01/24 13:52:44;;;;;;;;;;;19.80;99.90;;;;;;5016556;28;19918;-75
2023/01/24 13:55:21;;;;;;;;;;;19.80;99.90;;;;;;5016397;28;19909;-74
2023/01/24 13:57:48;;;;;;;;;;;19.80;99.90;;;;;;5016442;28;20288;-73
2023/01/24 14:00:20;;;;;;;;;;;19.80;99.90;;;;;;5016278;28;19921;-74
2023/01/24 14:02:50;;;;;;;;;;;19.90;99.90;;;;;;5016313;28;19914;-75
2023/01/24 14:05:29;;;;;;;;;;;20.00;99.90;;;;;;5015413;28;19956;-69
2023/01/24 14:08:01;;;;;;;;;;;20.00;99.90;;;;;;5016070;28;19924;-74
2023/01/24 14:10:34;;;;;;;;;;;19.90;99.90;;;;;;5016224;28;20281;-71
2023/01/24 14:13:01;;;;;;;;;;;19.90;99.90;;;;;;5016164;28;19916;-72
2023/01/24 14:15:39;;;;;;;;;;;19.90;99.90;;;;;;5015480;28;20396;-73
2023/01/24 14:18:37;;;;;;;;;;;19.80;99.90;;;;;;5014640;28;20320;-73
2023/01/24 14:21:04;;;;;;;;;;;19.90;99.90;;;;;;4982936;28;20375;-74
2023/01/24 14:23:32;;;;;;;;;;;19.90;99.90;;;;;;5023449;28;19932;-74
2023/01/24 14:26:05;;;;;;;;;;;19.90;99.90;;;;;;5035307;28;19940;-73
2023/01/24 14:28:40;;;;;;;;;;;19.90;99.90;;;;;;5035474;28;19928;-75
2023/01/24 14:31:17;;;;;;;;;;;19.90;99.90;;;;;;5035341;28;19909;-74
2023/01/24 14:33:54;;;;;;;;;;;20.00;99.90;;;;;;5020905;28;20338;-74
2023/01/24 14:36:27;;;;;;;;;;;20.00;99.90;;;;;;5014408;28;19996;-71
2023/01/24 14:39:17;;;;;;;;;;;20.00;99.90;;;;;;5015536;28;20295;-74
2023/01/24 14:41:45;;;;;;;;;;;20.00;99.90;;;;;;5015748;28;19910;-72
2023/01/24 14:44:20;;;;;;;;;;;20.00;99.90;;;;;;5015481;28;19913;-74
2023/01/24 14:47:10;;;;;;;;;;;20.00;99.90;;;;;;5014087;28;20391;-74
2023/01/24 14:49:42;;;;;;;;;;;20.10;99.90;;;;;;5014394;28;20036;-74
2023/01/24 14:52:20;;;;;;;;;;;20.00;99.90;;;;;;5014460;28;19949;-71
2023/01/24 14:54:47;;;;;;;;;;;20.00;99.90;;;;;;5015407;28;20017;-70
2023/01/24 14:57:21;;;;;;;;;;;20.00;99.90;;;;;;5014829;28;19956;-74
2023/01/24 15:00:08;;;;;;;;;;;20.00;99.90;;;;;;5015283;28;20016;-74
2023/01/24 15:02:35;;;;;;;;;;;20.00;99.90;;;;;;5003914;28;19971;-74
2023/01/24 15:05:03;;;;;;;;;;;20.10;99.90;;;;;;5015262;28;19963;-72
2023/01/24 15:07:30;;;;;;;;;;;20.00;99.90;;;;;;5014422;28;19952;-74
2023/01/24 15:09:56;;;;;;;;;;;20.10;99.90;;;;;;5014988;28;19914;-72
2023/01/24 15:12:34;;;;;;;;;;;20.10;99.90;;;;;;5014400;28;21403;-74